Time;durP1;ratioP1;P1;durP2;ratioP2;P2;SDS_P1;SDS_P2;PMS_P1;PMS_P2;Temp;Humidity;BMP_temperature;BMP_pressure;BME280_temperature;BME280_humidity;BME280_pressure;Samples;Min_cycle;Max_cycle;Signal;HPM_P1;HPM_P2
2024/02/21 00:00:19;;;;;;;28.67;25.13;;;9.60;99.90;;;;;;5159984;27;20441;-76
2024/02/21 00:02:47;;;;;;;29.37;24.40;;;9.60;99.90;;;;;;5160116;27;20432;-76
2024/02/21 00:05:16;;;;;;;26.60;24.00;;;9.60;99.90;;;;;;5178759;27;20765;-76
2024/02/21 00:07:44;;;;;;;28.40;24.57;;;9.60;99.90;;;;;;5178502;27;20455;-76
2024/02/21 00:10:12;;;;;;;30.90;26.80;;;9.60;99.90;;;;;;5178496;27;20428;-76
2024/02/21 00:12:41;;;;;;;30.70;27.47;;;9.60;99.90;;;;;;5178729;27;20440;-76
2024/02/21 00:15:09;;;;;;;31.50;28.20;;;9.60;99.90;;;;;;5178773;27;20433;-76
2024/02/21 00:17:39;;;;;;;32.83;28.00;;;9.60;99.90;;;;;;5178665;27;20455;-76
2024/02/21 00:20:08;;;;;;;33.03;29.17;;;9.60;99.90;;;;;;5178320;27;20439;-76
2024/02/21 00:22:37;;;;;;;33.93;29.90;;;9.60;99.90;;;;;;5178847;27;20428;-76
2024/02/21 00:25:06;;;;;;;37.13;30.40;;;9.60;99.90;;;;;;5178603;27;20516;-76
2024/02/21 00:27:34;;;;;;;37.70;31.27;;;9.60;99.90;;;;;;5178037;27;20575;-76
2024/02/21 00:30:02;;;;;;;32.50;29.17;;;9.60;99.90;;;;;;5159479;27;20456;-76
2024/02/21 00:32:32;;;;;;;38.13;30.97;;;9.60;99.90;;;;;;5159452;27;21030;-76
2024/02/21 00:35:02;;;;;;;33.67;28.37;;;9.60;99.90;;;;;;5159358;27;20444;-76
2024/02/21 00:37:30;;;;;;;34.13;30.50;;;9.60;99.90;;;;;;5159232;27;20464;-76
2024/02/21 00:39:58;;;;;;;42.27;31.87;;;9.60;99.90;;;;;;5177877;27;20425;-77
2024/02/21 00:42:26;;;;;;;34.60;28.80;;;9.60;99.90;;;;;;5158907;27;20884;-76
2024/02/21 00:44:55;;;;;;;35.83;29.83;;;9.60;99.90;;;;;;5159209;27;20433;-76
2024/02/21 00:47:23;;;;;;;32.00;28.60;;;9.60;99.90;;;;;;5177726;27;20817;-76
2024/02/21 00:49:51;;;;;;;35.60;28.87;;;9.60;99.90;;;;;;5177759;27;20523;-76
2024/02/21 00:52:20;;;;;;;33.00;29.50;;;9.60;99.90;;;;;;5177605;27;20471;-75
2024/02/21 00:54:49;;;;;;;34.30;29.10;;;9.60;99.90;;;;;;5158890;27;20437;-76
2024/02/21 00:57:23;;;;;;;37.60;30.03;;;9.60;99.90;;;;;;5177831;27;20449;-76
2024/02/21 00:59:51;;;;;;;33.03;28.90;;;9.60;99.90;;;;;;5177554;27;20425;-76
2024/02/21 01:02:19;;;;;;;34.50;29.43;;;9.60;99.90;;;;;;5158797;27;21028;-76
2024/02/21 01:04:48;;;;;;;34.20;30.53;;;9.60;99.90;;;;;;5158760;27;20441;-76
2024/02/21 01:07:16;;;;;;;32.30;28.90;;;9.60;99.90;;;;;;5177397;27;20559;-76
2024/02/21 01:09:45;;;;;;;34.40;29.97;;;9.60;99.90;;;;;;5177350;27;20485;-76
2024/02/21 01:12:14;;;;;;;36.67;28.37;;;9.60;99.90;;;;;;5177187;27;20910;-76
2024/02/21 01:14:42;;;;;;;33.93;29.80;;;9.60;99.90;;;;;;5177532;27;20429;-76
2024/02/21 01:17:10;;;;;;;34.10;30.03;;;9.60;99.90;;;;;;5177163;27;20552;-76
2024/02/21 01:19:38;;;;;;;32.77;28.67;;;9.60;99.90;;;;;;5177447;27;20437;-76
2024/02/21 01:22:06;;;;;;;34.80;28.23;;;9.60;99.90;;;;;;5177069;27;20429;-77
2024/02/21 01:24:35;;;;;;;33.60;30.17;;;9.60;99.90;;;;;;5177076;27;20435;-76
2024/02/21 01:27:05;;;;;;;47.40;31.20;;;9.60;99.90;;;;;;5176777;27;20491;-76
2024/02/21 01:29:33;;;;;;;39.53;29.73;;;9.60;99.90;;;;;;5176992;27;20477;-76
2024/02/21 01:32:01;;;;;;;32.93;29.23;;;9.60;99.90;;;;;;5176793;27;20528;-76
2024/02/21 01:34:29;;;;;;;34.30;30.37;;;9.60;99.90;;;;;;5158104;27;20496;-76
2024/02/21 01:37:04;;;;;;;32.40;28.77;;;9.70;99.90;;;;;;5158093;27;20472;-76
2024/02/21 01:39:32;;;;;;;30.73;27.53;;;9.70;99.90;;;;;;5176783;27;20409;-76
2024/02/21 01:42:01;;;;;;;31.40;28.07;;;9.70;99.90;;;;;;5177061;27;20444;-76
2024/02/21 01:44:31;;;;;;;32.53;27.47;;;9.60;99.90;;;;;;5176680;27;20952;-76
2024/02/21 01:46:59;;;;;;;32.97;27.83;;;9.70;99.90;;;;;;5157964;27;20464;-76
2024/02/21 01:49:28;;;;;;;30.53;27.30;;;9.70;99.90;;;;;;5177056;27;20937;-76
2024/02/21 01:51:57;;;;;;;32.87;27.87;;;9.70;99.90;;;;;;5182168;27;20467;-76
2024/02/21 01:54:28;;;;;;;31.30;28.03;;;9.70;99.90;;;;;;5178360;27;20429;-76
2024/02/21 01:56:57;;;;;;;31.00;26.60;;;9.70;99.90;;;;;;5157723;27;20460;-76
2024/02/21 01:59:26;;;;;;;31.50;27.20;;;9.70;99.90;;;;;;5157735;27;20440;-76
2024/02/21 02:01:57;;;;;;;34.80;27.30;;;9.70;99.90;;;;;;5176888;27;20424;-76
2024/02/21 02:04:26;;;;;;;37.93;27.30;;;9.70;99.90;;;;;;5176346;27;20509;-76
2024/02/21 02:06:56;;;;;;;32.33;26.53;;;9.60;99.90;;;;;;5176193;27;20551;-76
2024/02/21 02:09:24;;;;;;;33.33;27.87;;;9.60;99.90;;;;;;5176159;27;20432;-75
2024/02/21 02:11:52;;;;;;;35.67;28.10;;;9.60;99.90;;;;;;5176313;27;20819;-76
2024/02/21 02:14:21;;;;;;;33.87;27.83;;;9.60;99.90;;;;;;5176146;27;20444;-76
2024/02/21 02:16:49;;;;;;;31.50;26.30;;;9.60;99.90;;;;;;5176018;27;20452;-76
2024/02/21 02:19:19;;;;;;;31.83;26.60;;;9.60;99.90;;;;;;5157369;27;20790;-76
2024/02/21 02:21:53;;;;;;;35.33;26.80;;;9.60;99.90;;;;;;5176371;27;20430;-76
2024/02/21 02:24:24;;;;;;;31.47;26.63;;;9.60;99.90;;;;;;5176066;27;20814;-76
2024/02/21 02:26:53;;;;;;;29.97;26.10;;;9.60;99.90;;;;;;5157109;27;20829;-76
2024/02/21 02:29:21;;;;;;;30.00;26.80;;;9.60;99.90;;;;;;5157344;27;20424;-77
2024/02/21 02:31:50;;;;;;;30.07;26.17;;;9.60;99.90;;;;;;5175871;27;20489;-76
2024/02/21 02:34:19;;;;;;;30.20;26.53;;;9.60;99.90;;;;;;5175914;27;20429;-76
2024/02/21 02:36:49;;;;;;;30.43;25.73;;;9.60;99.90;;;;;;5176207;27;20444;-76
2024/02/21 02:39:17;;;;;;;30.47;26.33;;;9.60;99.90;;;;;;5157801;27;21007;-77
2024/02/21 02:41:47;;;;;;;31.33;25.93;;;9.60;99.90;;;;;;5175751;27;20425;-76
2024/02/21 02:44:16;;;;;;;28.30;24.90;;;9.60;99.90;;;;;;5157172;27;20548;-76
2024/02/21 02:46:44;;;;;;;33.43;26.13;;;9.60;99.90;;;;;;5175655;27;21032;-76
2024/02/21 02:49:13;;;;;;;30.30;27.10;;;9.60;99.90;;;;;;5175667;27;20516;-76
2024/02/21 02:51:43;;;;;;;32.77;26.53;;;9.60;99.90;;;;;;5175918;27;20432;-76
2024/02/21 02:54:11;;;;;;;28.57;25.57;;;9.60;99.90;;;;;;5157055;27;20433;-76
2024/02/21 02:56:40;;;;;;;29.63;26.53;;;9.60;99.90;;;;;;5156816;27;20835;-76
2024/02/21 02:59:09;;;;;;;29.97;26.10;;;9.60;99.90;;;;;;5175919;27;20845;-76
2024/02/21 03:01:38;;;;;;;29.23;25.83;;;9.60;99.90;;;;;;5175611;27;20440;-76
2024/02/21 03:04:06;;;;;;;30.93;27.40;;;9.60;99.90;;;;;;5158304;27;20440;-76
2024/02/21 03:06:34;;;;;;;33.43;26.77;;;9.60;99.90;;;;;;5160978;27;20591;-75
2024/02/21 03:09:08;;;;;;;31.70;26.80;;;9.60;99.90;;;;;;5160992;27;20440;-76
2024/02/21 03:11:40;;;;;;;29.77;26.63;;;9.60;99.90;;;;;;5179734;27;20413;-76
2024/02/21 03:14:10;;;;;;;30.20;26.47;;;9.60;99.90;;;;;;5160952;27;20501;-76
2024/02/21 03:16:39;;;;;;;29.47;26.30;;;9.60;99.90;;;;;;5160830;27;20456;-76
2024/02/21 03:19:07;;;;;;;30.40;27.40;;;9.60;99.90;;;;;;5160766;27;20548;-76
2024/02/21 03:21:35;;;;;;;34.60;27.50;;;9.60;99.90;;;;;;5160696;27;20468;-76
2024/02/21 03:24:04;;;;;;;29.97;26.87;;;9.60;99.90;;;;;;5179523;27;20520;-76
2024/02/21 03:26:32;;;;;;;32.60;28.20;;;9.60;99.90;;;;;;5179297;27;20444;-76
2024/02/21 03:29:00;;;;;;;30.97;27.10;;;9.60;99.90;;;;;;5179505;27;20416;-76
2024/02/21 03:31:30;;;;;;;38.27;27.43;;;9.60;99.90;;;;;;5160619;27;20874;-76
2024/02/21 03:33:59;;;;;;;32.90;26.30;;;9.60;99.90;;;;;;5160606;27;20456;-76
2024/02/21 03:36:28;;;;;;;28.70;25.67;;;9.60;99.90;;;;;;5179230;27;20452;-76
2024/02/21 03:38:56;;;;;;;29.30;26.17;;;9.60;99.90;;;;;;5179264;27;20496;-76
2024/02/21 03:41:25;;;;;;;30.50;27.10;;;9.60;99.90;;;;;;5160496;27;20438;-76
2024/02/21 03:43:53;;;;;;;29.87;26.67;;;9.60;99.90;;;;;;5179496;27;20468;-76
2024/02/21 03:46:21;;;;;;;29.90;25.80;;;9.60;99.90;;;;;;5160342;27;20551;-76
2024/02/21 03:48:51;;;;;;;31.90;27.87;;;9.60;99.90;;;;;;5179031;27;20485;-76
2024/02/21 03:51:19;;;;;;;30.63;27.27;;;9.60;99.90;;;;;;5160340;27;20812;-76
2024/02/21 03:53:47;;;;;;;33.07;27.27;;;9.50;99.90;;;;;;5178865;27;20456;-76
2024/02/21 03:56:15;;;;;;;30.57;27.37;;;9.50;99.90;;;;;;5178875;27;21039;-76
2024/02/21 03:58:44;;;;;;;32.30;27.30;;;9.50;99.90;;;;;;5178880;27;20853;-76
2024/02/21 04:01:12;;;;;;;34.20;27.67;;;9.50;99.90;;;;;;5179171;27;20429;-76
2024/02/21 04:03:41;;;;;;;29.80;25.60;;;9.40;99.90;;;;;;5178803;27;20461;-76
2024/02/21 04:06:11;;;;;;;29.10;25.97;;;9.40;99.90;;;;;;5178821;27;20444;-77
2024/02/21 04:08:39;;;;;;;29.43;26.33;;;9.40;99.90;;;;;;5180527;27;20949;-76
2024/02/21 04:11:07;;;;;;;31.77;27.20;;;9.40;99.90;;;;;;5179766;27;20433;-76
2024/02/21 04:13:36;;;;;;;30.47;27.40;;;9.40;99.90;;;;;;5159943;27;20939;-76
2024/02/21 04:16:05;;;;;;;28.67;25.60;;;9.40;99.90;;;;;;5159019;27;20480;-76
2024/02/21 04:18:33;;;;;;;31.10;27.77;;;9.40;99.90;;;;;;5178550;27;20429;-76
2024/02/21 04:21:02;;;;;;;30.90;26.77;;;9.30;99.90;;;;;;5159755;27;20785;-76
2024/02/21 04:23:31;;;;;;;29.97;25.67;;;9.30;99.90;;;;;;5178457;27;20456;-76
2024/02/21 04:25:59;;;;;;;29.40;25.97;;;9.30;99.90;;;;;;5159589;27;20457;-76
2024/02/21 04:28:28;;;;;;;30.50;27.23;;;9.30;99.90;;;;;;5178213;27;20440;-76
2024/02/21 04:30:56;;;;;;;28.13;25.33;;;9.30;99.90;;;;;;5178540;27;20523;-76
2024/02/21 04:33:24;;;;;;;27.23;24.50;;;9.30;99.90;;;;;;5178138;27;20567;-76
2024/02/21 04:35:54;;;;;;;28.53;25.53;;;9.30;99.90;;;;;;5159440;27;20507;-76
2024/02/21 04:38:22;;;;;;;27.03;24.23;;;9.30;99.90;;;;;;5178122;27;20468;-76
2024/02/21 04:40:52;;;;;;;27.43;24.63;;;9.30;99.90;;;;;;5178261;27;20525;-76
2024/02/21 04:43:20;;;;;;;27.83;24.93;;;9.20;99.90;;;;;;5178366;27;20433;-77
2024/02/21 04:45:49;;;;;;;27.03;24.40;;;9.20;99.90;;;;;;5177899;27;20448;-75
2024/02/21 04:48:17;;;;;;;26.47;23.00;;;9.20;99.90;;;;;;5177970;27;20429;-77
2024/02/21 04:50:45;;;;;;;26.87;24.03;;;9.20;99.90;;;;;;5177857;27;20925;-75
2024/02/21 04:53:13;;;;;;;26.03;23.30;;;9.20;99.90;;;;;;5177718;27;20571;-75
2024/02/21 04:55:41;;;;;;;25.07;22.60;;;9.20;99.90;;;;;;5177864;27;20452;-77
2024/02/21 04:58:12;;;;;;;27.17;24.20;;;9.20;99.90;;;;;;5177798;27;20432;-76
2024/02/21 05:00:40;;;;;;;22.97;20.87;;;9.20;99.90;;;;;;5177961;27;20511;-76
2024/02/21 05:03:08;;;;;;;23.70;21.40;;;9.20;99.90;;;;;;5178026;27;20428;-76
2024/02/21 05:05:36;;;;;;;23.80;21.40;;;9.20;99.90;;;;;;5158876;27;20501;-76
2024/02/21 05:08:06;;;;;;;23.87;21.33;;;9.20;99.90;;;;;;5158792;27;20441;-76
2024/02/21 05:10:34;;;;;;;24.17;21.60;;;9.20;99.90;;;;;;5177435;27;20523;-76
2024/02/21 05:13:02;;;;;;;24.20;21.80;;;9.20;99.90;;;;;;5177336;27;20429;-76
2024/02/21 05:15:32;;;;;;;24.30;21.87;;;9.20;99.90;;;;;;5158617;27;20488;-77
2024/02/21 05:18:00;;;;;;;24.03;21.53;;;9.20;99.90;;;;;;5177963;27;20909;-76
2024/02/21 05:20:29;;;;;;;22.03;19.80;;;9.20;99.90;;;;;;5158595;27;20470;-76
2024/02/21 05:22:58;;;;;;;21.70;19.40;;;9.20;99.90;;;;;;5177233;27;20433;-74
2024/02/21 05:25:26;;;;;;;21.43;19.17;;;9.20;99.90;;;;;;5177198;27;20424;-76
2024/02/21 05:27:55;;;;;;;21.17;19.17;;;9.10;99.90;;;;;;5176834;27;20463;-75
2024/02/21 05:30:23;;;;;;;20.80;18.60;;;9.10;99.90;;;;;;5158389;27;20448;-75
2024/02/21 05:32:53;;;;;;;22.23;19.97;;;9.10;99.90;;;;;;5176999;27;20478;-74
2024/02/21 05:35:26;;;;;;;21.23;19.13;;;9.10;99.90;;;;;;5158287;27;20985;-76
2024/02/21 05:37:55;;;;;;;21.40;19.40;;;9.10;99.90;;;;;;5158385;27;20793;-75
2024/02/21 05:40:23;;;;;;;20.40;18.40;;;9.10;99.90;;;;;;5176822;27;21005;-75
2024/02/21 05:42:52;;;;;;;20.40;18.40;;;9.10;99.90;;;;;;5176901;27;20938;-75
2024/02/21 05:45:20;;;;;;;20.87;18.87;;;9.10;99.90;;;;;;5176832;27;20481;-76
2024/02/21 05:47:48;;;;;;;20.80;18.70;;;9.10;99.90;;;;;;5157973;27;20630;-76
2024/02/21 05:50:18;;;;;;;21.47;19.47;;;9.10;99.90;;;;;;5176499;27;20426;-76
2024/02/21 05:52:47;;;;;;;21.37;19.27;;;9.20;99.90;;;;;;5176657;27;20429;-76
2024/02/21 05:55:15;;;;;;;20.57;18.70;;;9.20;99.90;;;;;;5158475;27;20469;-76
2024/02/21 05:57:43;;;;;;;22.30;20.07;;;9.10;99.90;;;;;;5157781;27;20517;-76
2024/02/21 06:00:13;;;;;;;21.37;19.37;;;9.10;99.90;;;;;;5176528;27;20429;-76
2024/02/21 06:02:41;;;;;;;21.50;19.40;;;9.10;99.90;;;;;;5176699;27;20460;-75
2024/02/21 06:05:09;;;;;;;22.57;20.47;;;9.10;99.90;;;;;;5157652;27;20437;-75
2024/02/21 06:07:40;;;;;;;21.73;19.53;;;9.10;99.90;;;;;;5176288;27;20453;-75
2024/02/21 06:10:09;;;;;;;22.17;19.97;;;9.10;99.90;;;;;;5176335;27;20436;-75
2024/02/21 06:12:37;;;;;;;20.83;18.83;;;9.10;99.90;;;;;;5176479;27;20432;-75
2024/02/21 06:15:06;;;;;;;21.20;19.17;;;9.10;99.90;;;;;;5176681;27;20551;-75
2024/02/21 06:17:34;;;;;;;21.03;18.93;;;9.10;99.90;;;;;;5176113;27;20461;-75
2024/02/21 06:20:03;;;;;;;22.10;20.00;;;9.10;99.90;;;;;;5157435;27;20476;-76
2024/02/21 06:22:31;;;;;;;21.00;18.97;;;9.10;99.90;;;;;;5157419;27;20444;-75
2024/02/21 06:25:02;;;;;;;21.97;19.80;;;9.10;99.90;;;;;;5177402;27;20511;-76
2024/02/21 06:27:30;;;;;;;22.10;19.80;;;9.10;99.90;;;;;;5157522;27;20927;-75
2024/02/21 06:29:58;;;;;;;21.17;19.07;;;9.10;99.90;;;;;;5176250;27;20459;-76
2024/02/21 06:32:26;;;;;;;21.60;19.60;;;9.10;99.90;;;;;;5175973;27;20523;-75
2024/02/21 06:34:54;;;;;;;23.43;20.70;;;9.10;99.90;;;;;;5157338;27;20830;-75
2024/02/21 06:37:23;;;;;;;21.97;19.77;;;9.10;99.90;;;;;;5157114;27;20553;-75
2024/02/21 06:39:51;;;;;;;22.63;20.37;;;9.10;99.90;;;;;;5156689;27;20441;-76
2024/02/21 06:42:21;;;;;;;23.20;20.53;;;9.10;99.90;;;;;;5176126;27;20432;-75
2024/02/21 06:44:49;;;;;;;23.80;21.40;;;9.10;99.90;;;;;;5157189;27;20850;-76
2024/02/21 06:47:18;;;;;;;23.67;21.17;;;9.10;99.90;;;;;;5157120;27;20536;-77
2024/02/21 06:49:50;;;;;;;24.90;22.30;;;9.10;99.90;;;;;;5175807;27;20440;-76
2024/02/21 06:52:20;;;;;;;25.13;22.60;;;9.10;99.90;;;;;;5175814;27;20810;-76
2024/02/21 06:54:48;;;;;;;26.03;23.47;;;9.10;99.90;;;;;;5157065;27;20461;-76
2024/02/21 06:57:17;;;;;;;26.50;23.80;;;9.10;99.90;;;;;;5157072;27;20491;-77
2024/02/21 06:59:46;;;;;;;26.33;23.50;;;9.10;99.90;;;;;;5175766;27;20475;-76
2024/02/21 07:02:14;;;;;;;27.20;24.40;;;9.10;99.90;;;;;;5157155;27;20445;-76
2024/02/21 07:04:43;;;;;;;26.60;23.83;;;9.10;99.90;;;;;;5175688;27;20501;-75
2024/02/21 07:07:12;;;;;;;28.40;25.53;;;9.10;99.90;;;;;;5175607;27;20520;-75
2024/02/21 07:09:41;;;;;;;28.17;25.07;;;9.10;99.90;;;;;;5157199;27;20444;-75
2024/02/21 07:12:10;;;;;;;29.60;26.67;;;9.10;99.90;;;;;;5157745;27;20445;-75
2024/02/21 07:14:38;;;;;;;31.27;26.50;;;9.10;99.90;;;;;;5156835;27;20460;-75
2024/02/21 07:17:08;;;;;;;31.97;24.73;;;9.10;99.90;;;;;;5175423;27;20440;-75
2024/02/21 07:19:36;;;;;;;28.87;24.97;;;9.10;99.90;;;;;;5175456;27;20527;-75
2024/02/21 07:22:05;;;;;;;29.37;25.90;;;9.10;99.90;;;;;;5156837;27;20476;-75
2024/02/21 07:24:33;;;;;;;29.77;26.47;;;9.10;99.90;;;;;;5175516;27;20433;-77
2024/02/21 07:27:04;;;;;;;32.13;27.37;;;9.10;99.90;;;;;;5156602;27;20464;-77
2024/02/21 07:29:32;;;;;;;30.17;26.97;;;9.10;99.90;;;;;;5175681;27;20428;-76
2024/02/21 07:32:00;;;;;;;31.17;27.90;;;9.20;99.90;;;;;;5156687;27;20432;-76
2024/02/21 07:34:30;;;;;;;31.67;28.27;;;9.20;99.90;;;;;;5175281;27;20961;-76
2024/02/21 07:36:59;;;;;;;34.93;29.50;;;9.20;99.90;;;;;;5175369;27;20482;-76
2024/02/21 07:39:27;;;;;;;33.13;28.50;;;9.20;99.90;;;;;;5175292;27;20433;-76
2024/02/21 07:41:55;;;;;;;37.33;30.23;;;9.20;99.90;;;;;;5175467;27;20452;-76
2024/02/21 07:44:23;;;;;;;33.13;28.60;;;9.20;99.90;;;;;;5175229;27;20852;-76
2024/02/21 07:46:52;;;;;;;36.50;30.80;;;9.20;99.90;;;;;;5156444;27;20839;-76
2024/02/21 07:49:20;;;;;;;37.93;32.50;;;9.20;99.90;;;;;;5175124;27;20928;-76
2024/02/21 07:51:50;;;;;;;37.00;30.07;;;9.20;99.90;;;;;;5177567;27;20432;-76
2024/02/21 07:54:18;;;;;;;37.40;31.40;;;9.30;99.90;;;;;;5179228;27;20481;-76
2024/02/21 07:56:48;;;;;;;42.33;31.70;;;9.30;99.90;;;;;;5161359;27;20844;-76
2024/02/21 07:59:16;;;;;;;36.97;32.20;;;9.30;99.90;;;;;;5178887;27;20455;-76
2024/02/21 08:01:45;;;;;;;44.40;31.83;;;9.30;99.90;;;;;;5178819;27;20436;-76
2024/02/21 08:04:14;;;;;;;44.10;30.63;;;9.30;99.90;;;;;;5178775;27;20447;-76
2024/02/21 08:06:43;;;;;;;41.10;31.43;;;9.30;99.90;;;;;;5178885;27;20849;-75
2024/02/21 08:09:13;;;;;;;41.53;31.87;;;9.30;99.90;;;;;;5160000;27;20444;-75
2024/02/21 08:11:41;;;;;;;35.40;28.70;;;9.40;99.90;;;;;;5178641;27;20472;-76
2024/02/21 08:14:09;;;;;;;39.10;31.30;;;9.40;99.90;;;;;;5160153;27;20447;-74
2024/02/21 08:16:37;;;;;;;44.20;31.47;;;9.40;99.90;;;;;;5178391;27;20480;-76
2024/02/21 08:19:06;;;;;;;36.30;30.77;;;9.40;99.90;;;;;;5159841;27;20937;-76
2024/02/21 08:21:34;;;;;;;38.70;29.00;;;9.40;99.90;;;;;;5159684;27;20524;-76
2024/02/21 08:24:02;;;;;;;39.80;30.63;;;9.40;99.90;;;;;;5159805;27;20480;-76
2024/02/21 08:26:32;;;;;;;36.80;29.90;;;9.40;99.90;;;;;;5178198;27;20965;-76
2024/02/21 08:29:00;;;;;;;42.90;30.27;;;9.40;99.90;;;;;;5159850;27;20432;-77
2024/02/21 08:31:31;;;;;;;34.93;29.77;;;9.50;99.90;;;;;;5159642;27;20441;-76
2024/02/21 08:34:02;;;;;;;38.10;30.93;;;9.40;99.90;;;;;;5159939;27;20425;-75
2024/02/21 08:36:32;;;;;;;38.90;31.63;;;9.50;99.90;;;;;;5178101;27;20472;-76
2024/02/21 08:39:02;;;;;;;35.40;30.70;;;9.40;99.90;;;;;;5178551;27;20425;-76
2024/02/21 08:41:33;;;;;;;38.53;32.00;;;9.40;99.90;;;;;;5160727;27;20437;-76
2024/02/21 08:44:23;;;;;;;37.87;29.97;;;9.40;99.90;;;;;;5179874;27;20504;-76
2024/02/21 08:46:51;;;;;;;42.80;29.67;;;9.50;99.90;;;;;;5178014;27;20459;-76
2024/02/21 08:49:20;;;;;;;35.60;29.20;;;9.40;99.90;;;;;;5159395;27;20467;-76
2024/02/21 08:51:49;;;;;;;34.77;29.20;;;9.50;99.90;;;;;;5177927;27;20436;-76
2024/02/21 08:54:18;;;;;;;36.03;29.53;;;9.50;99.90;;;;;;5177881;27;20472;-75
2024/02/21 08:56:47;;;;;;;32.20;28.47;;;9.50;99.90;;;;;;5159002;27;20472;-76
2024/02/21 08:59:16;;;;;;;36.97;28.87;;;9.50;99.90;;;;;;5159139;27;20437;-76
2024/02/21 09:01:45;;;;;;;25.53;20.70;;;9.50;99.90;;;;;;5177301;27;20858;-76
2024/02/21 09:04:13;;;;;;;33.17;28.00;;;9.50;99.90;;;;;;5158868;27;20489;-76
2024/02/21 09:06:42;;;;;;;31.03;27.30;;;9.50;99.90;;;;;;5177528;27;20540;-76
2024/02/21 09:09:11;;;;;;;29.70;26.50;;;9.50;99.90;;;;;;5177471;27;20797;-76
2024/02/21 09:11:40;;;;;;;31.10;27.80;;;9.50;99.90;;;;;;5177823;27;20428;-76
2024/02/21 09:14:10;;;;;;;29.93;26.57;;;9.50;99.90;;;;;;5177769;27;20429;-76
2024/02/21 09:16:38;;;;;;;31.50;26.47;;;9.50;99.90;;;;;;5177250;27;20479;-76
2024/02/21 09:19:07;;;;;;;30.73;27.30;;;9.50;99.90;;;;;;5158650;27;20805;-76
2024/02/21 09:21:35;;;;;;;28.70;24.90;;;9.50;99.90;;;;;;5158606;27;20444;-76
2024/02/21 09:24:03;;;;;;;33.63;26.33;;;9.50;99.90;;;;;;5177215;27;20472;-76
2024/02/21 09:26:32;;;;;;;29.50;26.40;;;9.50;99.90;;;;;;5158408;27;20464;-76
2024/02/21 09:29:00;;;;;;;30.00;25.23;;;9.50;99.90;;;;;;5158602;27;20997;-76
2024/02/21 09:31:30;;;;;;;33.20;24.87;;;9.50;99.90;;;;;;5158434;27;20551;-76
2024/02/21 09:33:58;;;;;;;30.47;25.77;;;9.50;99.90;;;;;;5177244;27;20914;-76
2024/02/21 09:36:27;;;;;;;31.60;25.10;;;9.50;99.90;;;;;;5158252;27;20508;-76
2024/02/21 09:38:55;;;;;;;31.43;25.93;;;9.50;99.90;;;;;;5177003;27;20774;-76
2024/02/21 09:41:27;;;;;;;29.00;25.87;;;9.50;99.90;;;;;;5176947;27;20464;-76
2024/02/21 09:43:55;;;;;;;27.53;24.60;;;9.50;99.90;;;;;;5177274;27;20767;-76
2024/02/21 09:46:34;;;;;;;29.40;24.87;;;9.50;99.90;;;;;;5158085;27;20555;-76
2024/02/21 09:49:14;;;;;;;33.07;23.90;;;9.50;99.90;;;;;;5158118;27;20433;-76
2024/02/21 09:51:44;;;;;;;27.50;22.93;;;9.50;99.90;;;;;;5158073;27;20440;-76
2024/02/21 09:54:13;;;;;;;24.07;21.17;;;9.50;99.90;;;;;;5157997;27;20488;-76
2024/02/21 09:56:47;;;;;;;26.03;21.97;;;9.50;99.90;;;;;;5157839;27;20528;-76
2024/02/21 09:59:16;;;;;;;25.77;23.07;;;9.50;99.90;;;;;;5176859;27;20428;-76
2024/02/21 10:01:46;;;;;;;25.50;22.63;;;9.50;99.90;;;;;;5157899;27;20449;-76
2024/02/21 10:04:17;;;;;;;24.67;22.00;;;9.50;99.90;;;;;;5176786;27;20831;-76
2024/02/21 10:06:45;;;;;;;24.97;21.77;;;9.50;99.90;;;;;;5176329;27;20453;-77
2024/02/21 10:09:22;;;;;;;25.07;21.93;;;9.50;99.90;;;;;;5176674;27;20436;-76
2024/02/21 10:11:51;;;;;;;22.97;20.43;;;9.60;99.90;;;;;;5157807;27;20485;-76
2024/02/21 10:14:20;;;;;;;23.23;20.73;;;9.60;99.90;;;;;;5175923;27;20433;-76
2024/02/21 10:16:49;;;;;;;25.50;21.50;;;9.60;99.90;;;;;;5176926;27;20873;-77
2024/02/21 10:19:19;;;;;;;23.73;20.40;;;9.60;99.90;;;;;;5176549;27;20433;-77
2024/02/21 10:22:05;;;;;;;24.00;21.47;;;9.60;99.90;;;;;;5157791;27;20443;-77
2024/02/21 10:24:33;;;;;;;24.33;21.83;;;9.60;99.90;;;;;;5157638;27;20884;-76
2024/02/21 10:27:03;;;;;;;23.10;20.23;;;9.60;99.90;;;;;;5176031;27;21044;-76
2024/02/21 10:29:32;;;;;;;24.30;21.77;;;9.70;99.90;;;;;;5157508;27;20505;-76
2024/02/21 10:32:08;;;;;;;22.80;20.47;;;9.70;99.90;;;;;;5176321;27;20468;-76
2024/02/21 10:34:38;;;;;;;24.10;20.27;;;9.70;99.90;;;;;;5176099;27;20799;-76
2024/02/21 10:37:08;;;;;;;22.70;20.30;;;9.70;99.90;;;;;;5157278;27;20563;-76
2024/02/21 10:39:38;;;;;;;23.37;20.67;;;9.80;99.90;;;;;;5176058;27;20481;-75
2024/02/21 10:42:07;;;;;;;24.10;20.77;;;9.80;99.90;;;;;;5157339;27;20449;-75
2024/02/21 10:44:39;;;;;;;26.70;21.63;;;9.80;99.90;;;;;;5175969;27;20871;-76
2024/02/21 10:47:09;;;;;;;23.70;21.30;;;9.80;99.90;;;;;;5157247;27;20508;-75
2024/02/21 10:49:40;;;;;;;23.97;20.27;;;9.80;99.90;;;;;;5175850;27;20417;-76
2024/02/21 10:52:16;;;;;;;26.10;20.90;;;9.90;99.90;;;;;;5157202;27;20433;-75
2024/02/21 10:54:47;;;;;;;22.20;19.43;;;9.90;99.90;;;;;;5157171;27;20440;-76
2024/02/21 10:57:16;;;;;;;22.53;20.07;;;9.90;99.90;;;;;;5156956;27;20469;-75
2024/02/21 10:59:46;;;;;;;21.43;19.10;;;9.90;99.90;;;;;;5175933;27;20436;-76
2024/02/21 11:02:15;;;;;;;20.43;18.40;;;10.00;99.90;;;;;;5157528;27;20452;-76
2024/02/21 11:04:46;;;;;;;21.23;18.10;;;10.00;99.90;;;;;;5175735;27;20481;-75
2024/02/21 11:07:16;;;;;;;20.57;18.63;;;10.10;99.90;;;;;;5176007;27;20493;-76
2024/02/21 11:09:53;;;;;;;15.83;14.17;;;10.10;99.90;;;;;;5175732;27;20508;-76
2024/02/21 11:12:22;;;;;;;23.67;18.17;;;10.20;99.90;;;;;;5176392;27;20409;-76
2024/02/21 11:14:50;;;;;;;20.83;17.30;;;10.20;99.90;;;;;;5156883;27;20444;-76
2024/02/21 11:17:21;;;;;;;18.17;16.27;;;10.30;99.90;;;;;;5175420;27;20464;-76
2024/02/21 11:19:50;;;;;;;20.33;16.60;;;10.30;99.90;;;;;;5157083;27;20481;-76
2024/02/21 11:22:22;;;;;;;17.43;15.70;;;10.40;99.90;;;;;;5156823;27;20937;-76
2024/02/21 11:24:51;;;;;;;16.33;14.73;;;10.40;99.90;;;;;;5176719;27;20435;-75
2024/02/21 11:27:21;;;;;;;17.13;14.87;;;10.40;99.90;;;;;;5160620;27;20525;-76
2024/02/21 11:29:54;;;;;;;16.40;14.80;;;10.50;99.90;;;;;;5160892;27;20435;-76
2024/02/21 11:32:23;;;;;;;16.03;14.33;;;10.50;99.90;;;;;;5160883;27;20433;-76
2024/02/21 11:35:01;;;;;;;16.10;14.40;;;10.50;99.90;;;;;;5179551;27;20937;-76
2024/02/21 11:37:30;;;;;;;15.13;13.70;;;10.50;99.90;;;;;;5160494;27;20468;-76
2024/02/21 11:39:59;;;;;;;15.80;14.10;;;10.60;99.90;;;;;;5179256;27;20433;-76
2024/02/21 11:42:28;;;;;;;17.03;14.87;;;10.60;99.90;;;;;;5160529;27;20505;-76
2024/02/21 11:44:58;;;;;;;16.77;14.30;;;10.60;99.90;;;;;;5160488;27;20496;-76
2024/02/21 11:47:26;;;;;;;14.10;12.30;;;10.60;99.90;;;;;;5179402;27;20452;-76
2024/02/21 11:49:56;;;;;;;14.10;12.80;;;10.70;99.90;;;;;;5179419;27;20436;-76
2024/02/21 11:52:26;;;;;;;15.13;13.53;;;10.70;99.90;;;;;;5160416;27;20454;-77
2024/02/21 11:54:57;;;;;;;15.03;13.00;;;10.70;99.90;;;;;;5179654;27;20469;-76
2024/02/21 11:57:26;;;;;;;14.27;12.87;;;10.70;99.90;;;;;;5178836;27;20961;-76
2024/02/21 11:59:54;;;;;;;13.20;11.90;;;10.70;99.90;;;;;;5160142;27;20486;-76
2024/02/21 12:02:28;;;;;;;11.77;10.53;;;10.70;99.90;;;;;;5160186;27;20437;-76
2024/02/21 12:04:58;;;;;;;12.13;10.93;;;10.80;99.90;;;;;;5160182;27;20852;-76
2024/02/21 12:07:28;;;;;;;11.10;10.20;;;10.80;99.90;;;;;;5160415;27;20468;-76
2024/02/21 12:10:00;;;;;;;12.63;10.20;;;10.80;99.90;;;;;;5160791;27;20441;-77
2024/02/21 12:12:29;;;;;;;11.90;10.80;;;10.80;99.90;;;;;;5160296;27;20444;-76
2024/02/21 12:14:58;;;;;;;11.63;9.93;;;10.90;99.90;;;;;;5178738;27;20429;-76
2024/02/21 12:17:26;;;;;;;11.40;9.33;;;10.90;99.90;;;;;;5178698;27;20491;-75
2024/02/21 12:19:55;;;;;;;10.60;9.47;;;10.90;99.90;;;;;;5159939;27;20508;-75
2024/02/21 12:22:26;;;;;;;13.17;9.83;;;11.00;99.90;;;;;;5178690;27;20436;-76
2024/02/21 12:24:54;;;;;;;11.33;9.20;;;11.00;99.90;;;;;;5159855;27;20805;-77
2024/02/21 12:27:23;;;;;;;11.47;8.90;;;11.00;99.90;;;;;;5159725;27;20467;-77
2024/02/21 12:29:51;;;;;;;10.20;8.93;;;11.00;99.90;;;;;;5159678;27;20444;-75
2024/02/21 12:32:20;;;;;;;9.97;8.37;;;11.00;99.90;;;;;;5178303;27;20520;-76
2024/02/21 12:34:48;;;;;;;9.87;8.40;;;11.00;99.90;;;;;;5159484;27;20812;-75
2024/02/21 12:37:26;;;;;;;14.87;9.30;;;11.00;99.90;;;;;;5177325;27;20475;-75
2024/02/21 12:39:54;;;;;;;10.80;7.53;;;11.00;99.90;;;;;;5178433;27;20500;-76
2024/02/21 12:42:23;;;;;;;9.40;7.67;;;11.00;99.90;;;;;;5178062;27;20436;-75
2024/02/21 12:44:52;;;;;;;10.43;7.87;;;11.00;99.90;;;;;;5178122;27;20420;-76